createdAt,value
2018-08-30T00:01:07.234Z,13.65
2018-08-30T00:03:34.894Z,12.15
2018-08-30T00:06:10.897Z,12.28
2018-08-30T00:08:38.606Z,12.63
2018-08-30T00:11:06.304Z,12.55
2018-08-30T00:13:35.978Z,12.68
2018-08-30T00:16:04.869Z,12.30
2018-08-30T00:18:33.378Z,11.73
2018-08-30T00:21:02.737Z,11.80
2018-08-30T00:23:30.912Z,13.40
2018-08-30T00:25:59.203Z,11.83
2018-08-30T00:28:26.889Z,11.85
2018-08-30T00:30:55.340Z,11.28
2018-08-30T00:33:23.018Z,12.75
2018-08-30T00:35:50.679Z,12.10
2018-08-30T00:38:18.419Z,11.53
2018-08-30T00:40:46.141Z,10.65
2018-08-30T00:43:13.790Z,11.33
2018-08-30T00:45:41.498Z,11.33
2018-08-30T00:48:09.842Z,12.33
2018-08-30T00:50:37.540Z,11.85
2018-08-30T00:53:05.463Z,11.15
2018-08-30T00:55:33.128Z,11.55
2018-08-30T00:58:01.110Z,11.00
2018-08-30T01:00:28.995Z,10.58
2018-08-30T01:02:56.652Z,11.80
2018-08-30T01:05:24.708Z,11.80
2018-08-30T01:07:52.510Z,12.28
2018-08-30T01:10:20.218Z,10.53
2018-08-30T01:12:53.231Z,11.95
2018-08-30T01:15:22.331Z,11.00
2018-08-30T01:17:50.696Z,10.80
2018-08-30T01:20:18.766Z,12.20
2018-08-30T01:22:46.638Z,11.88
2018-08-30T01:25:14.308Z,11.38
2018-08-30T01:27:42.008Z,11.60
2018-08-30T01:30:10.689Z,12.00
2018-08-30T01:32:38.364Z,10.88
2018-08-30T01:35:06.067Z,12.47
2018-08-30T01:37:33.731Z,11.25
2018-08-30T01:40:01.402Z,11.73
2018-08-30T01:42:29.127Z,11.22
2018-08-30T01:44:57.341Z,11.50
2018-08-30T01:47:24.997Z,11.88
2018-08-30T01:49:52.696Z,12.23
2018-08-30T01:52:20.391Z,11.70
2018-08-30T01:54:48.146Z,9.45
2018-08-30T01:57:15.875Z,13.00
2018-08-30T01:59:43.784Z,10.18
2018-08-30T02:02:11.898Z,11.80
2018-08-30T02:04:39.549Z,12.95
2018-08-30T02:07:07.244Z,12.15
2018-08-30T02:09:35.019Z,12.18
2018-08-30T02:12:03.036Z,12.65
2018-08-30T02:14:31.498Z,11.57
2018-08-30T02:16:59.139Z,12.65
2018-08-30T02:19:26.825Z,11.43
2018-08-30T02:21:55.077Z,12.23
2018-08-30T02:24:22.723Z,11.93
2018-08-30T02:26:50.592Z,12.47
2018-08-30T02:29:18.254Z,13.53
2018-08-30T02:31:45.881Z,11.88
2018-08-30T02:34:13.569Z,13.22
2018-08-30T02:36:41.287Z,12.58
2018-08-30T02:39:09.678Z,11.83
2018-08-30T02:41:37.603Z,13.53
2018-08-30T02:44:05.331Z,13.53
2018-08-30T02:46:33.089Z,14.90
2018-08-30T02:49:00.817Z,15.40
2018-08-30T02:51:28.479Z,12.20
2018-08-30T02:53:56.107Z,13.68
2018-08-30T02:56:24.012Z,14.45
2018-08-30T02:58:51.654Z,13.28
2018-08-30T03:01:19.453Z,15.15
2018-08-30T03:03:47.214Z,13.78
2018-08-30T03:06:14.885Z,14.18
2018-08-30T03:08:42.568Z,14.90
2018-08-30T03:11:10.270Z,13.03
2018-08-30T03:13:37.945Z,14.33
2018-08-30T03:16:05.627Z,16.42
2018-08-30T03:18:33.269Z,13.62
2018-08-30T03:21:00.993Z,14.80
2018-08-30T03:23:28.723Z,13.43
2018-08-30T03:25:56.381Z,14.25
2018-08-30T03:28:24.090Z,12.80
2018-08-30T03:30:51.875Z,13.40
2018-08-30T03:33:19.521Z,13.22
2018-08-30T03:35:47.977Z,11.83
2018-08-30T03:38:15.636Z,9.40
2018-08-30T03:40:43.302Z,11.05
2018-08-30T03:43:11.743Z,12.30
2018-08-30T03:45:39.416Z,13.03
2018-08-30T03:48:07.533Z,14.87
2018-08-30T03:50:35.276Z,15.48
2018-08-30T03:53:03.017Z,11.80
2018-08-30T03:55:30.787Z,12.70
2018-08-30T03:57:59.067Z,13.08
2018-08-30T04:00:26.722Z,13.05
2018-08-30T04:02:54.386Z,12.50
2018-08-30T04:05:22.074Z,12.65
2018-08-30T04:07:49.777Z,12.60
2018-08-30T04:10:18.802Z,12.25
2018-08-30T04:12:46.409Z,12.43
2018-08-30T04:15:14.074Z,13.62
2018-08-30T04:17:41.747Z,14.28
2018-08-30T04:20:09.624Z,12.88
2018-08-30T04:22:37.354Z,13.22
2018-08-30T04:25:05.135Z,13.72
2018-08-30T04:27:32.884Z,13.05
2018-08-30T04:30:00.696Z,12.35
2018-08-30T04:32:28.590Z,13.53
2018-08-30T04:34:56.256Z,13.48
2018-08-30T04:37:23.940Z,13.38
2018-08-30T04:39:51.608Z,12.60
2018-08-30T04:42:19.725Z,14.45
2018-08-30T04:44:47.415Z,12.30
2018-08-30T04:47:15.704Z,12.25
2018-08-30T04:49:43.406Z,12.33
2018-08-30T04:52:18.780Z,13.48
2018-08-30T04:54:46.773Z,12.07
2018-08-30T04:57:14.432Z,11.25
2018-08-30T04:59:42.129Z,12.93
2018-08-30T05:02:09.811Z,11.05
2018-08-30T05:04:37.527Z,11.73
2018-08-30T05:07:05.519Z,10.90
2018-08-30T05:09:33.221Z,9.83
2018-08-30T05:12:01.037Z,10.15
2018-08-30T05:14:28.878Z,10.60
2018-08-30T05:16:56.633Z,10.00
2018-08-30T05:19:24.640Z,11.83
2018-08-30T05:21:52.643Z,9.55
2018-08-30T05:24:20.258Z,11.90
2018-08-30T05:26:47.857Z,12.13
2018-08-30T05:29:15.513Z,9.23
2018-08-30T05:31:43.208Z,10.32
2018-08-30T05:34:10.887Z,10.55
2018-08-30T05:36:38.573Z,10.15
2018-08-30T05:39:07.140Z,9.00
2018-08-30T05:41:34.832Z,10.03
2018-08-30T05:44:04.117Z,10.82
2018-08-30T05:46:31.938Z,9.73
2018-08-30T05:48:59.674Z,11.68
2018-08-30T05:51:27.673Z,9.55
2018-08-30T05:53:55.399Z,8.95
2018-08-30T05:56:25.075Z,11.73
2018-08-30T05:58:52.724Z,10.05
2018-08-30T06:01:20.604Z,10.08
2018-08-30T06:03:48.292Z,11.97
2018-08-30T06:06:16.000Z,10.30
2018-08-30T06:08:43.714Z,9.23
2018-08-30T06:11:11.729Z,7.87
2018-08-30T06:13:39.664Z,7.05
2018-08-30T06:16:07.373Z,9.63
2018-08-30T06:18:35.142Z,6.30
2018-08-30T06:21:02.891Z,7.60
2018-08-30T06:23:30.723Z,8.48
2018-08-30T06:25:58.390Z,9.23
2018-08-30T06:28:26.075Z,8.23
2018-08-30T06:30:53.757Z,8.13
2018-08-30T06:33:21.473Z,9.43
2018-08-30T06:35:49.233Z,6.78
2018-08-30T06:38:16.897Z,7.35
2018-08-30T06:40:44.865Z,7.47
2018-08-30T06:43:13.412Z,8.58
2018-08-30T06:45:41.056Z,7.10
2018-08-30T06:48:09.866Z,6.50
2018-08-30T06:50:37.668Z,7.65
2018-08-30T06:53:05.814Z,7.17
2018-08-30T06:55:33.428Z,6.78
2018-08-30T06:58:01.130Z,7.90
2018-08-30T07:00:28.870Z,7.25
2018-08-30T07:02:56.591Z,7.42
2018-08-30T07:05:24.348Z,9.13
2018-08-30T07:07:52.076Z,6.75
2018-08-30T07:10:19.978Z,5.53
2018-08-30T07:12:47.700Z,8.68
2018-08-30T07:15:15.448Z,6.30
2018-08-30T07:17:43.064Z,6.08
2018-08-30T07:20:10.804Z,7.78
2018-08-30T07:22:38.474Z,3.77
2018-08-30T07:25:06.120Z,7.33
2018-08-30T07:27:33.819Z,8.25
2018-08-30T07:30:02.228Z,5.58
2018-08-30T07:32:30.295Z,6.33
2018-08-30T07:34:58.878Z,7.28
2018-08-30T07:37:26.599Z,7.40
2018-08-30T07:39:55.841Z,4.12
2018-08-30T07:42:24.298Z,5.17
2018-08-30T07:44:52.751Z,5.60
2018-08-30T07:47:21.386Z,5.45
2018-08-30T07:49:50.299Z,5.67
2018-08-30T07:52:20.039Z,6.28
2018-08-30T07:54:47.876Z,7.40
2018-08-30T07:57:16.120Z,6.22
2018-08-30T07:59:45.759Z,3.42
2018-08-30T08:02:14.584Z,7.00
2018-08-30T08:04:43.563Z,6.30
2018-08-30T08:07:11.554Z,6.75
2018-08-30T08:09:40.807Z,5.28
2018-08-30T08:12:10.293Z,6.65
2018-08-30T08:14:38.071Z,5.70
2018-08-30T08:17:06.745Z,5.40
2018-08-30T08:19:36.715Z,5.75
2018-08-30T08:22:05.257Z,7.85
2018-08-30T08:24:34.884Z,5.12
2018-08-30T08:27:02.754Z,7.60
2018-08-30T08:29:30.582Z,5.65
2018-08-30T08:31:58.260Z,4.20
2018-08-30T08:34:26.582Z,4.55
2018-08-30T08:36:55.075Z,5.62
2018-08-30T08:39:22.872Z,6.45
2018-08-30T08:41:51.301Z,5.67
2018-08-30T08:44:19.072Z,5.95
2018-08-30T08:46:46.803Z,6.25
2018-08-30T08:49:14.801Z,7.60
2018-08-30T08:51:42.505Z,4.97
2018-08-30T08:54:10.177Z,4.72
2018-08-30T08:56:37.900Z,2.65
2018-08-30T08:59:05.676Z,5.58
2018-08-30T09:01:33.875Z,4.83
2018-08-30T09:04:01.679Z,5.53
2018-08-30T09:06:29.601Z,6.08
2018-08-30T09:11:22.919Z,5.20
2018-08-30T09:13:50.824Z,4.85
2018-08-30T09:16:18.817Z,8.93
2018-08-30T09:18:46.590Z,4.58
2018-08-30T09:21:15.175Z,5.45
2018-08-30T09:23:43.518Z,3.92
2018-08-30T09:26:11.200Z,5.33
2018-08-30T09:28:38.966Z,5.80
2018-08-30T09:31:06.722Z,4.47
2018-08-30T09:33:35.100Z,4.20
2018-08-30T09:36:02.946Z,4.55
2018-08-30T09:38:30.682Z,5.80
2018-08-30T09:40:58.388Z,6.17
2018-08-30T09:43:26.061Z,4.42
2018-08-30T09:45:53.736Z,4.58
2018-08-30T09:48:21.454Z,6.62
2018-08-30T09:50:49.173Z,5.03
2018-08-30T09:53:16.843Z,6.97
2018-08-30T09:55:44.655Z,5.62
2018-08-30T09:58:12.520Z,4.45
2018-08-30T10:00:45.939Z,3.90
2018-08-30T10:03:13.639Z,7.03
2018-08-30T10:05:41.337Z,5.92
2018-08-30T10:08:09.564Z,2.37
2018-08-30T10:10:37.241Z,4.08
2018-08-30T10:13:05.048Z,4.60
2018-08-30T10:15:32.746Z,6.08
2018-08-30T10:18:00.965Z,6.17
2018-08-30T10:20:29.014Z,6.40
2018-08-30T10:22:56.773Z,7.10
2018-08-30T10:25:24.526Z,5.80
2018-08-30T10:27:52.209Z,5.03
2018-08-30T10:30:19.944Z,4.95
2018-08-30T10:32:47.687Z,3.37
2018-08-30T10:35:15.361Z,4.55
2018-08-30T10:37:43.060Z,4.97
2018-08-30T10:40:10.796Z,5.37
2018-08-30T10:42:39.131Z,5.95
2018-08-30T10:45:07.457Z,4.95
2018-08-30T10:47:35.192Z,7.22
2018-08-30T10:50:03.608Z,4.47
2018-08-30T10:52:32.411Z,5.35
2018-08-30T10:55:00.567Z,4.17
2018-08-30T10:57:29.387Z,7.97
2018-08-30T10:59:57.694Z,3.50
2018-08-30T11:02:26.064Z,6.40
2018-08-30T11:04:55.651Z,5.67
2018-08-30T11:07:25.071Z,4.45
2018-08-30T11:09:57.116Z,4.87
2018-08-30T11:12:25.488Z,5.72
2018-08-30T11:14:53.947Z,5.47
2018-08-30T11:17:23.291Z,4.20
2018-08-30T11:19:51.142Z,6.10
2018-08-30T11:22:19.004Z,4.53
2018-08-30T11:24:47.363Z,5.05
2018-08-30T11:27:17.282Z,4.70
2018-08-30T11:29:45.577Z,5.03
2018-08-30T11:32:14.929Z,4.35
2018-08-30T11:34:43.384Z,4.17
2018-08-30T11:37:12.390Z,5.50
2018-08-30T11:39:43.289Z,6.65
2018-08-30T11:42:11.207Z,8.05
2018-08-30T11:44:41.358Z,4.10
2018-08-30T11:47:11.141Z,3.75
2018-08-30T11:49:39.212Z,5.40
2018-08-30T11:52:09.439Z,3.87
2018-08-30T11:54:39.976Z,4.08
2018-08-30T11:57:07.994Z,5.25
2018-08-30T11:59:37.237Z,5.42
2018-08-30T12:02:08.072Z,5.20
2018-08-30T12:04:39.040Z,4.22
2018-08-30T12:07:09.202Z,6.25
2018-08-30T12:09:40.323Z,6.58
2018-08-30T12:12:09.686Z,5.22
2018-08-30T12:14:39.633Z,4.65
2018-08-30T12:17:07.554Z,4.10
2018-08-30T12:19:36.573Z,5.45
2018-08-30T12:22:04.908Z,5.08
2018-08-30T12:24:32.798Z,3.85
2018-08-30T12:27:00.584Z,5.20
2018-08-30T12:29:35.036Z,7.08
2018-08-30T12:32:05.488Z,3.95
2018-08-30T12:34:33.391Z,3.85
2018-08-30T12:37:01.749Z,4.60
2018-08-30T12:39:31.650Z,4.42
2018-08-30T12:42:00.054Z,5.20
2018-08-30T12:44:27.958Z,6.42
2018-08-30T12:46:55.740Z,3.15
2018-08-30T12:49:23.523Z,7.53
2018-08-30T12:51:51.825Z,5.83
2018-08-30T12:54:19.584Z,6.65
2018-08-30T12:56:48.426Z,7.35
2018-08-30T12:59:17.689Z,4.12
2018-08-30T13:01:46.846Z,5.10
2018-08-30T13:04:14.569Z,7.92
2018-08-30T13:06:48.980Z,3.72
2018-08-30T13:09:16.907Z,5.78
2018-08-30T13:11:45.328Z,8.68
2018-08-30T13:14:12.999Z,5.95
2018-08-30T13:16:41.509Z,4.12
2018-08-30T13:19:09.398Z,4.72
2018-08-30T13:21:37.619Z,4.20
2018-08-30T13:24:05.512Z,5.83
2018-08-30T13:26:33.184Z,5.03
2018-08-30T13:29:00.931Z,5.85
2018-08-30T13:31:29.205Z,3.83
2018-08-30T13:33:57.153Z,5.60
2018-08-30T13:36:24.832Z,5.67
2018-08-30T13:38:52.352Z,6.83
2018-08-30T13:41:20.373Z,3.60
2018-08-30T13:43:48.296Z,5.22
2018-08-30T13:46:15.928Z,5.90
2018-08-30T13:48:44.271Z,5.22
2018-08-30T13:51:14.027Z,6.03
2018-08-30T13:53:41.767Z,3.52
2018-08-30T13:56:09.750Z,4.12
2018-08-30T13:58:41.666Z,5.45
2018-08-30T14:02:39.617Z,6.42
2018-08-30T14:05:07.361Z,5.60
2018-08-30T14:10:12.054Z,5.65
2018-08-30T14:12:45.947Z,4.12
2018-08-30T14:15:13.974Z,4.45
2018-08-30T14:17:41.290Z,5.10
2018-08-30T14:20:09.099Z,4.33
2018-08-30T14:22:37.857Z,5.03
2018-08-30T14:25:06.086Z,6.20
2018-08-30T14:27:33.886Z,5.85
2018-08-30T14:30:01.669Z,3.87
2018-08-30T14:32:29.318Z,5.70
2018-08-30T14:34:57.987Z,3.90
2018-08-30T14:37:25.785Z,3.08
2018-08-30T14:39:53.504Z,5.12
2018-08-30T14:42:21.360Z,3.92
2018-08-30T14:44:49.051Z,4.95
2018-08-30T14:47:17.349Z,4.10
2018-08-30T14:49:46.181Z,4.92
2018-08-30T14:52:14.005Z,3.75
2018-08-30T14:54:42.407Z,5.15
2018-08-30T14:57:11.994Z,4.90
2018-08-30T14:59:40.145Z,4.40
2018-08-30T15:02:07.980Z,3.67
2018-08-30T15:04:35.677Z,2.33
2018-08-30T15:07:03.298Z,3.42
2018-08-30T15:09:31.755Z,4.53
2018-08-30T15:12:02.706Z,5.90
2018-08-30T15:14:32.494Z,4.10
2018-08-30T15:17:00.926Z,5.20
2018-08-30T15:19:28.683Z,5.17
2018-08-30T15:21:56.444Z,4.10
2018-08-30T15:24:24.301Z,5.37
2018-08-30T15:26:52.194Z,4.00
2018-08-30T15:29:20.214Z,5.00
2018-08-30T15:31:49.159Z,4.10
2018-08-30T15:34:17.107Z,5.30
2018-08-30T15:36:44.792Z,3.60
2018-08-30T15:39:13.022Z,4.85
2018-08-30T15:41:41.215Z,5.70
2018-08-30T15:44:09.505Z,3.22
2018-08-30T15:46:37.135Z,4.70
2018-08-30T15:49:04.791Z,4.42
2018-08-30T15:51:34.244Z,4.95
2018-08-30T15:54:02.373Z,5.72
2018-08-30T15:56:31.032Z,4.72
2018-08-30T15:59:01.544Z,4.33
2018-08-30T16:01:29.356Z,5.00
2018-08-30T16:03:57.540Z,2.90
2018-08-30T16:06:26.238Z,4.85
2018-08-30T16:08:53.954Z,4.50
2018-08-30T16:11:21.968Z,4.30
2018-08-30T16:13:49.635Z,4.42
2018-08-30T16:16:17.354Z,7.03
2018-08-30T16:18:48.996Z,3.17
2018-08-30T16:21:16.569Z,4.78
2018-08-30T16:23:44.234Z,4.12
2018-08-30T16:26:12.121Z,3.52
2018-08-30T16:28:39.869Z,4.83
2018-08-30T16:31:07.660Z,4.75
2018-08-30T16:33:35.317Z,4.33
2018-08-30T16:36:02.960Z,3.05
2018-08-30T16:38:32.603Z,4.42
2018-08-30T16:41:00.646Z,5.00
2018-08-30T16:43:28.342Z,3.33
2018-08-30T16:45:57.359Z,3.37
2018-08-30T16:48:25.074Z,3.08
2018-08-30T16:50:52.790Z,4.65
2018-08-30T16:53:20.488Z,5.22
2018-08-30T16:55:50.785Z,6.05
2018-08-30T16:58:18.546Z,4.80
2018-08-30T17:00:46.223Z,4.42
2018-08-30T17:03:13.960Z,3.50
2018-08-30T17:05:41.661Z,3.65
2018-08-30T17:08:09.312Z,3.50
2018-08-30T17:10:36.948Z,4.53
2018-08-30T17:13:04.646Z,4.37
2018-08-30T17:15:32.374Z,5.28
2018-08-30T17:18:00.160Z,4.70
2018-08-30T17:20:44.479Z,4.40
2018-08-30T17:23:12.298Z,4.83
2018-08-30T17:25:40.843Z,5.20
2018-08-30T17:28:11.094Z,3.37
2018-08-30T17:30:42.622Z,5.22
2018-08-30T17:33:11.059Z,2.70
2018-08-30T17:35:39.065Z,4.22
2018-08-30T17:38:08.092Z,4.62
2018-08-30T17:40:35.948Z,5.60
2018-08-30T17:43:04.780Z,3.72
2018-08-30T17:45:35.766Z,4.50
2018-08-30T17:48:03.545Z,5.28
2018-08-30T17:50:32.572Z,5.60
2018-08-30T17:53:00.891Z,3.65
2018-08-30T17:55:30.395Z,3.55
2018-08-30T17:58:00.554Z,5.97
2018-08-30T18:00:29.847Z,5.53
2018-08-30T18:02:59.110Z,3.08
2018-08-30T18:05:27.505Z,2.80
2018-08-30T18:07:56.776Z,4.45
2018-08-30T18:10:24.567Z,6.85
2018-08-30T18:12:53.555Z,4.35
2018-08-30T18:15:21.320Z,5.00
2018-08-30T18:17:49.163Z,5.58
2018-08-30T18:20:17.879Z,4.55
2018-08-30T18:22:48.442Z,4.60
2018-08-30T18:25:19.305Z,4.08
2018-08-30T18:27:47.066Z,5.97
2018-08-30T18:30:16.805Z,6.15
2018-08-30T18:32:45.978Z,4.65
2018-08-30T18:35:20.981Z,3.02
2018-08-30T18:37:49.575Z,4.65
2018-08-30T18:40:18.535Z,3.47
2018-08-30T18:42:48.039Z,5.50
2018-08-30T18:45:15.823Z,3.30
2018-08-30T18:47:46.252Z,3.15
2018-08-30T18:50:16.320Z,4.12
2018-08-30T18:52:44.064Z,5.97
2018-08-30T18:55:11.915Z,4.37
2018-08-30T18:57:40.014Z,5.67
2018-08-30T19:00:08.627Z,4.35
2018-08-30T19:02:36.470Z,4.35
2018-08-30T19:05:04.907Z,4.08
2018-08-30T19:07:36.592Z,4.70
2018-08-30T19:10:06.060Z,2.58
2018-08-30T19:12:34.776Z,2.70
2018-08-30T19:15:07.121Z,4.30
2018-08-30T19:17:42.761Z,4.92
2018-08-30T19:20:11.456Z,6.80
2018-08-30T19:22:42.068Z,4.28
2018-08-30T19:25:13.508Z,4.35
2018-08-30T19:27:42.691Z,5.03
2018-08-30T19:30:16.471Z,4.83
2018-08-30T19:32:46.592Z,4.62
2018-08-30T19:35:20.166Z,3.02
2018-08-30T19:37:50.633Z,3.37
2018-08-30T19:40:29.242Z,6.20
2018-08-30T19:42:57.892Z,7.53
2018-08-30T19:45:26.022Z,4.55
2018-08-30T19:47:54.907Z,7.25
2018-08-30T19:50:33.612Z,5.12
2018-08-30T19:53:01.956Z,8.58
2018-08-30T19:55:30.395Z,3.83
2018-08-30T19:57:58.237Z,6.92
2018-08-30T20:00:26.838Z,3.60
2018-08-30T20:02:54.644Z,4.80
2018-08-30T20:05:24.138Z,4.25
2018-08-30T20:07:51.958Z,5.40
2018-08-30T20:10:19.956Z,3.05
2018-08-30T20:12:50.740Z,3.45
2018-08-30T20:15:19.367Z,3.95
2018-08-30T20:17:48.077Z,4.05
2018-08-30T20:20:19.200Z,5.33
2018-08-30T20:22:50.450Z,2.98
2018-08-30T20:25:22.859Z,6.10
2018-08-30T20:27:50.622Z,7.65
2018-08-30T20:30:19.535Z,4.47
2018-08-30T20:32:52.464Z,7.62
2018-08-30T20:35:22.940Z,4.42
2018-08-30T20:37:51.880Z,5.60
2018-08-30T20:40:29.243Z,5.25
2018-08-30T20:43:04.684Z,4.97
2018-08-30T20:45:35.282Z,6.10
2018-08-30T20:48:03.218Z,6.20
2018-08-30T20:50:34.147Z,3.58
2018-08-30T20:53:12.985Z,5.42
2018-08-30T20:55:41.323Z,5.00
2018-08-30T20:58:11.258Z,3.50
2018-08-30T21:00:39.538Z,5.70
2018-08-30T21:03:09.394Z,7.62
2018-08-30T21:05:37.671Z,6.50
2018-08-30T21:08:06.730Z,5.58
2018-08-30T21:10:35.233Z,3.83
2018-08-30T21:13:03.120Z,7.35
2018-08-30T21:15:35.622Z,4.92
2018-08-30T21:18:04.852Z,5.40
2018-08-30T21:20:32.918Z,6.55
2018-08-30T21:23:04.867Z,5.53
2018-08-30T21:25:34.358Z,4.78
2018-08-30T21:28:04.769Z,6.08
2018-08-30T21:30:34.973Z,4.33
2018-08-30T21:33:03.138Z,2.83
2018-08-30T21:35:31.145Z,5.15
2018-08-30T21:38:02.145Z,5.62
2018-08-30T21:40:30.675Z,8.85
2018-08-30T21:42:58.836Z,5.83
2018-08-30T21:45:26.722Z,4.53
2018-08-30T21:47:54.590Z,4.97
2018-08-30T21:50:23.298Z,4.08
2018-08-30T21:52:51.074Z,5.45
2018-08-30T21:55:19.544Z,6.12
2018-08-30T21:57:51.133Z,4.00
2018-08-30T22:00:18.794Z,4.85
2018-08-30T22:02:46.545Z,5.30
2018-08-30T22:05:14.302Z,4.42
2018-08-30T22:07:42.056Z,5.80
2018-08-30T22:10:09.809Z,5.97
2018-08-30T22:12:37.565Z,4.58
2018-08-30T22:15:06.316Z,5.47
2018-08-30T22:17:34.096Z,5.58
2018-08-30T22:20:03.804Z,3.85
2018-08-30T22:22:31.906Z,4.50
2018-08-30T22:25:00.395Z,5.22
2018-08-30T22:27:28.959Z,3.92
2018-08-30T22:29:56.660Z,7.40
2018-08-30T22:32:26.541Z,4.62
2018-08-30T22:34:55.078Z,3.87
2018-08-30T22:37:22.874Z,3.58
2018-08-30T22:39:50.604Z,6.12
2018-08-30T22:42:18.273Z,3.85
2018-08-30T22:44:47.077Z,6.35
2018-08-30T22:47:14.734Z,5.12
2018-08-30T22:49:42.429Z,4.67
2018-08-30T22:52:10.096Z,3.90
2018-08-30T22:54:37.785Z,5.55
2018-08-30T22:57:05.454Z,5.37
2018-08-30T22:59:33.198Z,4.53
2018-08-30T23:02:00.913Z,6.78
2018-08-30T23:04:28.670Z,4.50
2018-08-30T23:06:56.358Z,4.83
2018-08-30T23:09:24.064Z,4.20
2018-08-30T23:11:51.732Z,5.90
2018-08-30T23:14:19.918Z,5.67
2018-08-30T23:16:47.833Z,4.83
2018-08-30T23:19:15.506Z,4.05
2018-08-30T23:21:43.229Z,4.33
2018-08-30T23:24:11.073Z,3.37
2018-08-30T23:26:42.785Z,3.85
2018-08-30T23:29:10.488Z,5.22
2018-08-30T23:31:41.850Z,6.12
2018-08-30T23:34:09.602Z,3.55
2018-08-30T23:36:37.675Z,4.45
2018-08-30T23:39:07.385Z,5.40
2018-08-30T23:41:35.175Z,4.42
2018-08-30T23:44:02.933Z,6.03
2018-08-30T23:46:31.262Z,4.30
2018-08-30T23:48:59.013Z,5.53
2018-08-30T23:51:26.712Z,3.30
2018-08-30T23:53:54.445Z,3.33
2018-08-30T23:56:22.142Z,6.78
2018-08-30T23:59:01.256Z,2.60
